Details From VHHH - Hong Kong Intl
To WADD - Denpasar Ngurah Rai Intl
Flight Number -
Tags Generated
Created
Modified
Stats Distance 1,867 nm / 3,457 km
Max Altitude 0 ft / 0 m
Waypoints 4
Social Downloads 2
Likes 0
Share VATSIM

Download

Looking for another format? Having issues loading an existing format? Contact us
Advertisement - Login to hide

Notes

Generated

Route

VHHH ELANG BLI WADD

ID Type Via Altitude Latitude Longitude Leg Dist Tot Dist Heading (true) Name
O VHHH APT - 0 ft / 0 m 22.29628˚ 113.89799˚ - 0 nm - -
ELANG FIX - 0 ft / 0 m -0.92657˚ 114.83419˚ 1395 nm 1395 nm 178° / 178° -
BLI VOR - 0 ft / 0 m -8.75058˚ 115.16331˚ 470 nm 1866 nm 178° / 178° BALI VOR-DME
O WADD APT - 0 ft / 0 m -8.74871˚ 115.15363˚ 0 nm 1866 nm 281° / 281° -

Altitude Profile

Advertisement - Login to hide

Weather


0- 5 10 15 20 25 30 35+ Temperature / ° C

Clouds and Precipitation
Forecast for 2017-12-14 12:00 UTC. Updated an hour ago

Ground ~20,000 ft ~40,000 ft Winds

VHHH

Details ICAO VHHH (HKG)
Name Hong Kong Intl
Region Hong Kong
Timezone Unknown (UTC+0.0)
Stats Elevation 28 ft / 9 m (AMSL)
Location 22.308995° 113.914610°
Runways 2
Magnetic Variation 2.822° W

METAR

VHHH 141030Z 26005KT 7000 FEW033 SCT045 21/16 Q1017 NOSIG

Decode

TAF

TAF VHHH 140500Z 1406/1512 34010KT 7000 FEW030 SCT040 TX22/1407Z TX22/1506Z TN18/1423Z BECMG 1409/1411 05010KT BECMG 1503/1505 35010KT TEMPO 1508/1512 05010KT

Decode

Departure Runways

ID Width Length Bearing (true) Bearing (mag) Surface Threshold Offset Overrun Length
07L 197 ft / 60 m 12,457 ft / 3,797 m 70.79° 73.61° Asphalt 564 ft / 172 m 866 ft / 264 m
07R 197 ft / 60 m 12,458 ft / 3,797 m 70.79° 73.61° Asphalt 525 ft / 160 m 886 ft / 270 m
25L 197 ft / 60 m 12,458 ft / 3,797 m 250.80° 253.62° Asphalt 0 ft / 0 m 840 ft / 256 m
25R 197 ft / 60 m 12,457 ft / 3,797 m 250.80° 253.62° Asphalt 581 ft / 177 m 860 ft / 262 m

WADD

Details ICAO WADD (DPS)
Name Denpasar Ngurah Rai Intl
Region Indonesia
Timezone Asia/Makassar (UTC+8.0)
Stats Elevation 14 ft / 4 m (AMSL)
Location -8.748169° 115.167174°
Runways 1
Magnetic Variation 1.055° E

METAR

WADD 141000Z 26008KT 230V290 9999 FEW017 29/25 Q1008 NOSIG

Decode

TAF

TAF TAF WADD 140500Z 1406/1506 28010KT 9999 SCT016 TEMPO 1407/1411 FEW015CB SCT016 BECMG 1416/1418 VRB05KT TEMPO 1418/1422 5000 TSRA FEW013CB BKN013

Decode

Destination Runways

ID Width Length Bearing (true) Bearing (mag) Surface Threshold Offset Overrun Length
09 148 ft / 45 m 9,779 ft / 2,981 m 87.71° 86.65° Asphalt 121 ft / 37 m 75 ft / 23 m
27 148 ft / 45 m 9,779 ft / 2,981 m 267.70° 266.64° Asphalt 0 ft / 0 m 197 ft / 60 m

Approach Navaids

Runway Type Ident Frequency Range Bearing (true) Bearing (mag) Slope Elevation
27 Localiser IDPS 110.30 MHz 18 nm / 33 km 267.70° 266.65° - 10 ft / 3 m (AMSL)
27 Glidescope IDPS 110.30 MHz 10 nm / 19 km 267.70° 266.65° 3.00° 12 ft / 4 m (AMSL)
27 DME IDPS 110.30 MHz 18 nm / 33 km - - - 14 ft / 4 m (AMSL)

Popular Alternatives